sensor_id;sensor_type;location;lat;lon;timestamp;pressure;altitude;pressure_sealevel;temperature;humidity
41312;BME280;27061;41.648;24.568;2024-01-15T00:01:51;85131.50;;;-1.87;61.76
41312;BME280;27061;41.648;24.568;2024-01-15T00:04:18;85132.75;;;-1.94;61.45
41312;BME280;27061;41.648;24.568;2024-01-15T00:06:46;85122.72;;;-1.86;61.65
41312;BME280;27061;41.648;24.568;2024-01-15T00:09:13;85038.75;;;-2.58;62.03
41312;BME280;27061;41.648;24.568;2024-01-15T00:11:40;85070.75;;;-2.48;62.12
41312;BME280;27061;41.648;24.568;2024-01-15T00:14:08;85079.31;;;-2.26;61.89
41312;BME280;27061;41.648;24.568;2024-01-15T00:16:37;85119.13;;;-1.96;62.03
41312;BME280;27061;41.648;24.568;2024-01-15T00:19:05;85122.63;;;-1.90;61.83
41312;BME280;27061;41.648;24.568;2024-01-15T00:21:33;85128.72;;;-1.91;61.38
41312;BME280;27061;41.648;24.568;2024-01-15T00:24:01;85105.13;;;-2.23;59.85
41312;BME280;27061;41.648;24.568;2024-01-15T00:26:28;85125.25;;;-1.96;60.95
41312;BME280;27061;41.648;24.568;2024-01-15T00:28:56;85124.66;;;-1.92;61.66
41312;BME280;27061;41.648;24.568;2024-01-15T00:31:23;85076.38;;;-2.38;61.62
41312;BME280;27061;41.648;24.568;2024-01-15T00:33:50;85118.28;;;-2.07;61.68
41312;BME280;27061;41.648;24.568;2024-01-15T00:36:19;85042.13;;;-2.57;61.62
41312;BME280;27061;41.648;24.568;2024-01-15T00:38:47;85018.88;;;-2.70;61.38
41312;BME280;27061;41.648;24.568;2024-01-15T00:41:16;84977.88;;;-3.24;61.82
41312;BME280;27061;41.648;24.568;2024-01-15T00:43:46;85113.63;;;-2.00;62.05
41312;BME280;27061;41.648;24.568;2024-01-15T00:46:18;85034.50;;;-2.67;61.61
41312;BME280;27061;41.648;24.568;2024-01-15T00:48:45;84968.72;;;-3.07;60.84
41312;BME280;27061;41.648;24.568;2024-01-15T00:51:14;85077.78;;;-2.35;61.65
41312;BME280;27061;41.648;24.568;2024-01-15T00:53:41;85102.47;;;-2.18;60.92
41312;BME280;27061;41.648;24.568;2024-01-15T00:56:09;85021.25;;;-2.88;61.87
41312;BME280;27061;41.648;24.568;2024-01-15T00:58:36;84986.59;;;-2.94;61.79
41312;BME280;27061;41.648;24.568;2024-01-15T01:01:03;85043.63;;;-2.50;60.36
41312;BME280;27061;41.648;24.568;2024-01-15T01:03:31;85009.78;;;-2.85;61.17
41312;BME280;27061;41.648;24.568;2024-01-15T01:05:59;85074.34;;;-2.37;62.38
41312;BME280;27061;41.648;24.568;2024-01-15T01:08:27;85060.00;;;-2.44;62.39
41312;BME280;27061;41.648;24.568;2024-01-15T01:10:58;85002.44;;;-2.80;61.45
41312;BME280;27061;41.648;24.568;2024-01-15T01:13:25;84917.72;;;-3.57;61.25
41312;BME280;27061;41.648;24.568;2024-01-15T01:15:53;85004.81;;;-2.97;61.69
41312;BME280;27061;41.648;24.568;2024-01-15T01:18:21;85103.63;;;-2.30;62.18
41312;BME280;27061;41.648;24.568;2024-01-15T01:20:49;85028.09;;;-2.83;62.78
41312;BME280;27061;41.648;24.568;2024-01-15T01:23:18;85003.28;;;-3.08;62.34
41312;BME280;27061;41.648;24.568;2024-01-15T01:25:47;85092.59;;;-2.40;61.92
41312;BME280;27061;41.648;24.568;2024-01-15T01:28:17;85049.91;;;-2.77;61.76
41312;BME280;27061;41.648;24.568;2024-01-15T01:30:46;85011.22;;;-3.16;62.59
41312;BME280;27061;41.648;24.568;2024-01-15T01:33:13;84966.75;;;-3.41;62.39
41312;BME280;27061;41.648;24.568;2024-01-15T01:35:41;85051.19;;;-2.80;62.06
41312;BME280;27061;41.648;24.568;2024-01-15T01:38:08;85069.13;;;-2.63;61.71
41312;BME280;27061;41.648;24.568;2024-01-15T01:40:35;85019.78;;;-2.93;61.75
41312;BME280;27061;41.648;24.568;2024-01-15T01:43:05;85093.19;;;-2.43;61.62
41312;BME280;27061;41.648;24.568;2024-01-15T01:45:36;85033.28;;;-2.96;61.89
41312;BME280;27061;41.648;24.568;2024-01-15T01:48:04;85068.03;;;-2.84;62.43
41312;BME280;27061;41.648;24.568;2024-01-15T01:50:32;84964.69;;;-3.42;62.48
41312;BME280;27061;41.648;24.568;2024-01-15T01:53:01;85090.19;;;-2.60;63.59
41312;BME280;27061;41.648;24.568;2024-01-15T01:55:31;85076.59;;;-2.62;63.70
41312;BME280;27061;41.648;24.568;2024-01-15T01:58:00;85075.94;;;-2.60;62.72
41312;BME280;27061;41.648;24.568;2024-01-15T02:00:31;85082.84;;;-2.55;62.91
41312;BME280;27061;41.648;24.568;2024-01-15T02:02:59;85077.09;;;-2.71;63.81
41312;BME280;27061;41.648;24.568;2024-01-15T02:05:27;84989.25;;;-3.32;63.20
41312;BME280;27061;41.648;24.568;2024-01-15T02:07:56;85064.81;;;-2.76;63.61
41312;BME280;27061;41.648;24.568;2024-01-15T02:10:25;85030.00;;;-2.90;63.27
41312;BME280;27061;41.648;24.568;2024-01-15T02:12:53;84959.69;;;-3.56;64.58
41312;BME280;27061;41.648;24.568;2024-01-15T02:15:20;85059.41;;;-2.76;65.10
41312;BME280;27061;41.648;24.568;2024-01-15T02:18:00;85058.91;;;-2.67;64.02
41312;BME280;27061;41.648;24.568;2024-01-15T02:20:29;84932.78;;;-3.82;64.13
41312;BME280;27061;41.648;24.568;2024-01-15T02:25:58;85059.69;;;-2.60;63.57
41312;BME280;27061;41.648;24.568;2024-01-15T02:28:25;85052.06;;;-2.70;63.33
41312;BME280;27061;41.648;24.568;2024-01-15T02:30:53;85054.72;;;-2.72;63.44
41312;BME280;27061;41.648;24.568;2024-01-15T02:33:21;85043.06;;;-2.80;62.80
41312;BME280;27061;41.648;24.568;2024-01-15T02:35:49;85039.25;;;-2.67;62.41
41312;BME280;27061;41.648;24.568;2024-01-15T02:38:19;85017.72;;;-2.95;63.04
41312;BME280;27061;41.648;24.568;2024-01-15T02:40:49;85041.56;;;-2.87;64.23
41312;BME280;27061;41.648;24.568;2024-01-15T02:43:17;85046.94;;;-2.89;64.84
41312;BME280;27061;41.648;24.568;2024-01-15T02:45:47;84970.81;;;-3.42;64.07
41312;BME280;27061;41.648;24.568;2024-01-15T02:48:14;84975.59;;;-3.38;63.92
41312;BME280;27061;41.648;24.568;2024-01-15T02:50:42;85041.63;;;-2.83;62.91
41312;BME280;27061;41.648;24.568;2024-01-15T02:53:09;85019.53;;;-3.06;63.97
41312;BME280;27061;41.648;24.568;2024-01-15T02:55:37;85011.69;;;-2.91;64.52
41312;BME280;27061;41.648;24.568;2024-01-15T02:58:04;85026.88;;;-2.76;64.11
41312;BME280;27061;41.648;24.568;2024-01-15T03:00:35;84948.47;;;-3.42;64.46
41312;BME280;27061;41.648;24.568;2024-01-15T03:03:03;84962.53;;;-3.50;64.16
41312;BME280;27061;41.648;24.568;2024-01-15T03:05:30;84954.88;;;-3.59;64.50
41312;BME280;27061;41.648;24.568;2024-01-15T03:07:58;84975.06;;;-3.30;64.55
41312;BME280;27061;41.648;24.568;2024-01-15T03:10:25;84975.91;;;-3.22;64.51
41312;BME280;27061;41.648;24.568;2024-01-15T03:12:53;85013.13;;;-2.88;63.42
41312;BME280;27061;41.648;24.568;2024-01-15T03:15:20;84933.13;;;-3.65;64.05
41312;BME280;27061;41.648;24.568;2024-01-15T03:17:47;84994.97;;;-3.16;64.12
41312;BME280;27061;41.648;24.568;2024-01-15T03:20:15;84942.69;;;-3.60;64.38
41312;BME280;27061;41.648;24.568;2024-01-15T03:22:42;85007.13;;;-3.19;65.30
41312;BME280;27061;41.648;24.568;2024-01-15T03:25:10;84980.41;;;-3.35;64.90
41312;BME280;27061;41.648;24.568;2024-01-15T03:27:39;84941.28;;;-3.63;64.11
41312;BME280;27061;41.648;24.568;2024-01-15T03:30:07;85000.38;;;-3.18;63.74
41312;BME280;27061;41.648;24.568;2024-01-15T03:32:37;85003.00;;;-3.22;63.46
41312;BME280;27061;41.648;24.568;2024-01-15T03:35:05;84946.47;;;-3.40;64.00
41312;BME280;27061;41.648;24.568;2024-01-15T03:37:33;84960.72;;;-3.37;63.24
41312;BME280;27061;41.648;24.568;2024-01-15T03:40:00;85013.97;;;-3.14;62.87
41312;BME280;27061;41.648;24.568;2024-01-15T03:42:28;84939.81;;;-3.69;63.54
41312;BME280;27061;41.648;24.568;2024-01-15T03:44:58;85013.53;;;-3.02;63.37
41312;BME280;27061;41.648;24.568;2024-01-15T03:47:26;84931.28;;;-3.55;63.10
41312;BME280;27061;41.648;24.568;2024-01-15T03:49:57;85003.22;;;-3.10;61.16
41312;BME280;27061;41.648;24.568;2024-01-15T03:52:25;84974.25;;;-3.39;62.92
41312;BME280;27061;41.648;24.568;2024-01-15T03:54:52;85025.16;;;-2.96;62.46
41312;BME280;27061;41.648;24.568;2024-01-15T03:57:21;85039.13;;;-3.07;64.00
41312;BME280;27061;41.648;24.568;2024-01-15T03:59:49;84924.34;;;-3.98;63.99
41312;BME280;27061;41.648;24.568;2024-01-15T04:02:18;84984.03;;;-3.56;65.32
41312;BME280;27061;41.648;24.568;2024-01-15T04:04:45;84938.38;;;-3.74;64.99
41312;BME280;27061;41.648;24.568;2024-01-15T04:07:16;84937.59;;;-3.78;64.83
41312;BME280;27061;41.648;24.568;2024-01-15T04:09:43;84951.72;;;-3.48;64.99
41312;BME280;27061;41.648;24.568;2024-01-15T04:12:11;84944.72;;;-3.61;65.11
41312;BME280;27061;41.648;24.568;2024-01-15T04:14:38;84989.94;;;-3.32;65.08
41312;BME280;27061;41.648;24.568;2024-01-15T04:17:06;84914.00;;;-4.08;65.80
41312;BME280;27061;41.648;24.568;2024-01-15T04:19:34;84949.25;;;-3.70;64.48
41312;BME280;27061;41.648;24.568;2024-01-15T04:22:02;84862.59;;;-4.42;64.06
41312;BME280;27061;41.648;24.568;2024-01-15T04:24:31;85035.03;;;-3.10;64.43
41312;BME280;27061;41.648;24.568;2024-01-15T04:26:59;85003.00;;;-3.22;64.17
41312;BME280;27061;41.648;24.568;2024-01-15T04:29:27;84999.50;;;-3.26;64.17
41312;BME280;27061;41.648;24.568;2024-01-15T04:31:54;84937.84;;;-3.66;63.88
41312;BME280;27061;41.648;24.568;2024-01-15T04:34:22;84976.59;;;-3.55;64.53
41312;BME280;27061;41.648;24.568;2024-01-15T04:36:49;85027.22;;;-2.94;64.33
41312;BME280;27061;41.648;24.568;2024-01-15T04:39:17;84915.00;;;-3.91;64.27
41312;BME280;27061;41.648;24.568;2024-01-15T04:41:45;85021.56;;;-3.06;64.58
41312;BME280;27061;41.648;24.568;2024-01-15T04:44:12;84985.84;;;-3.33;65.11
41312;BME280;27061;41.648;24.568;2024-01-15T04:46:40;84998.31;;;-3.17;63.72
41312;BME280;27061;41.648;24.568;2024-01-15T04:49:07;84965.88;;;-3.49;64.07
41312;BME280;27061;41.648;24.568;2024-01-15T04:51:35;84990.94;;;-3.49;64.72
41312;BME280;27061;41.648;24.568;2024-01-15T04:54:03;84961.19;;;-3.81;66.04
41312;BME280;27061;41.648;24.568;2024-01-15T04:56:31;84988.91;;;-3.48;65.25
41312;BME280;27061;41.648;24.568;2024-01-15T04:58:59;85002.59;;;-3.42;65.56
41312;BME280;27061;41.648;24.568;2024-01-15T05:01:31;85032.19;;;-3.16;64.74
41312;BME280;27061;41.648;24.568;2024-01-15T05:03:59;84977.88;;;-3.60;65.16
41312;BME280;27061;41.648;24.568;2024-01-15T05:06:27;85023.38;;;-3.17;64.88
41312;BME280;27061;41.648;24.568;2024-01-15T05:08:55;84979.72;;;-3.35;65.64
41312;BME280;27061;41.648;24.568;2024-01-15T05:11:23;84987.84;;;-3.35;64.95
41312;BME280;27061;41.648;24.568;2024-01-15T05:13:50;84910.81;;;-3.98;65.22
41312;BME280;27061;41.648;24.568;2024-01-15T05:16:18;84983.75;;;-3.36;64.73
41312;BME280;27061;41.648;24.568;2024-01-15T05:18:48;84943.09;;;-3.74;65.99
41312;BME280;27061;41.648;24.568;2024-01-15T05:21:15;84876.03;;;-4.14;66.79
41312;BME280;27061;41.648;24.568;2024-01-15T05:23:42;84947.66;;;-3.83;68.14
41312;BME280;27061;41.648;24.568;2024-01-15T05:26:10;84931.41;;;-3.83;67.88
41312;BME280;27061;41.648;24.568;2024-01-15T05:28:37;84971.97;;;-3.51;67.91
41312;BME280;27061;41.648;24.568;2024-01-15T05:31:05;84915.09;;;-3.87;68.11
41312;BME280;27061;41.648;24.568;2024-01-15T05:33:32;84935.09;;;-3.68;68.17
41312;BME280;27061;41.648;24.568;2024-01-15T05:36:00;84931.66;;;-3.71;68.06
41312;BME280;27061;41.648;24.568;2024-01-15T05:38:27;85001.69;;;-3.19;67.88
41312;BME280;27061;41.648;24.568;2024-01-15T05:40:59;84946.94;;;-3.51;68.20
41312;BME280;27061;41.648;24.568;2024-01-15T05:43:26;85003.91;;;-3.09;67.81
41312;BME280;27061;41.648;24.568;2024-01-15T05:45:54;84976.16;;;-3.10;67.64
41312;BME280;27061;41.648;24.568;2024-01-15T05:48:21;84974.53;;;-3.23;67.71
41312;BME280;27061;41.648;24.568;2024-01-15T05:50:48;84966.91;;;-3.33;69.07
41312;BME280;27061;41.648;24.568;2024-01-15T05:53:17;84903.16;;;-3.76;68.38
41312;BME280;27061;41.648;24.568;2024-01-15T05:55:45;84968.72;;;-3.09;68.10
41312;BME280;27061;41.648;24.568;2024-01-15T05:58:15;84939.41;;;-3.21;67.68
41312;BME280;27061;41.648;24.568;2024-01-15T06:00:42;84816.03;;;-4.06;67.06
41312;BME280;27061;41.648;24.568;2024-01-15T06:03:10;84881.81;;;-3.59;66.36
41312;BME280;27061;41.648;24.568;2024-01-15T06:05:38;84956.00;;;-3.01;66.11
41312;BME280;27061;41.648;24.568;2024-01-15T06:08:20;84873.84;;;-3.53;65.51
41312;BME280;27061;41.648;24.568;2024-01-15T06:10:47;84894.47;;;-3.34;66.00
41312;BME280;27061;41.648;24.568;2024-01-15T06:13:15;84900.72;;;-3.25;66.81
41312;BME280;27061;41.648;24.568;2024-01-15T06:15:42;84980.97;;;-2.68;66.80
41312;BME280;27061;41.648;24.568;2024-01-15T06:18:09;84975.66;;;-2.62;67.06
41312;BME280;27061;41.648;24.568;2024-01-15T06:20:37;84951.16;;;-2.68;67.98
41312;BME280;27061;41.648;24.568;2024-01-15T06:23:05;84992.94;;;-2.41;67.74
41312;BME280;27061;41.648;24.568;2024-01-15T06:25:32;84962.69;;;-2.68;67.64
41312;BME280;27061;41.648;24.568;2024-01-15T06:28:00;84916.13;;;-2.98;67.50
41312;BME280;27061;41.648;24.568;2024-01-15T06:30:27;84833.03;;;-3.65;67.79
41312;BME280;27061;41.648;24.568;2024-01-15T06:32:55;84981.38;;;-2.46;67.60
41312;BME280;27061;41.648;24.568;2024-01-15T06:35:22;85004.03;;;-2.27;66.74
41312;BME280;27061;41.648;24.568;2024-01-15T06:37:50;84955.13;;;-2.73;67.99
41312;BME280;27061;41.648;24.568;2024-01-15T06:40:20;84832.75;;;-3.44;67.50
41312;BME280;27061;41.648;24.568;2024-01-15T06:42:47;84939.00;;;-2.67;67.39
41312;BME280;27061;41.648;24.568;2024-01-15T06:45:15;84941.91;;;-2.55;67.25
41312;BME280;27061;41.648;24.568;2024-01-15T06:47:42;84990.69;;;-2.15;67.90
41312;BME280;27061;41.648;24.568;2024-01-15T06:50:09;84795.97;;;-3.57;67.90
41312;BME280;27061;41.648;24.568;2024-01-15T06:52:37;84915.66;;;-2.86;67.99
41312;BME280;27061;41.648;24.568;2024-01-15T06:55:04;84963.66;;;-2.51;69.12
41312;BME280;27061;41.648;24.568;2024-01-15T06:57:33;84975.41;;;-2.36;70.32
41312;BME280;27061;41.648;24.568;2024-01-15T07:00:00;84965.31;;;-2.34;70.52
41312;BME280;27061;41.648;24.568;2024-01-15T07:02:28;84925.66;;;-2.55;70.80
41312;BME280;27061;41.648;24.568;2024-01-15T07:04:55;84951.63;;;-2.40;70.82
41312;BME280;27061;41.648;24.568;2024-01-15T07:07:22;84963.13;;;-2.41;70.43
41312;BME280;27061;41.648;24.568;2024-01-15T07:09:50;84936.19;;;-2.31;70.70
41312;BME280;27061;41.648;24.568;2024-01-15T07:12:19;84909.47;;;-2.49;70.54
41312;BME280;27061;41.648;24.568;2024-01-15T07:14:47;84981.56;;;-1.92;70.87
41312;BME280;27061;41.648;24.568;2024-01-15T07:17:18;84887.16;;;-2.47;69.90
41312;BME280;27061;41.648;24.568;2024-01-15T07:19:45;84890.00;;;-2.37;69.62
41312;BME280;27061;41.648;24.568;2024-01-15T07:22:14;84916.56;;;-2.30;69.21
41312;BME280;27061;41.648;24.568;2024-01-15T07:24:44;84909.97;;;-2.16;69.36
41312;BME280;27061;41.648;24.568;2024-01-15T07:27:11;84844.38;;;-2.55;67.93
41312;BME280;27061;41.648;24.568;2024-01-15T07:29:39;84776.03;;;-2.93;66.68
41312;BME280;27061;41.648;24.568;2024-01-15T07:32:06;84914.41;;;-1.93;64.09
41312;BME280;27061;41.648;24.568;2024-01-15T07:34:34;84921.13;;;-1.96;65.29
41312;BME280;27061;41.648;24.568;2024-01-15T07:37:02;84980.25;;;-1.40;65.63
41312;BME280;27061;41.648;24.568;2024-01-15T07:39:29;84984.44;;;-1.31;64.31
41312;BME280;27061;41.648;24.568;2024-01-15T07:41:58;84987.88;;;-1.29;65.88
41312;BME280;27061;41.648;24.568;2024-01-15T07:44:26;84922.13;;;-1.73;66.77
41312;BME280;27061;41.648;24.568;2024-01-15T07:46:53;84855.06;;;-2.17;66.41
41312;BME280;27061;41.648;24.568;2024-01-15T07:49:21;84613.78;;;-3.76;63.36
41312;BME280;27061;41.648;24.568;2024-01-15T07:51:48;84918.31;;;-1.54;62.75
41312;BME280;27061;41.648;24.568;2024-01-15T07:54:16;84904.66;;;-1.58;63.73
41312;BME280;27061;41.648;24.568;2024-01-15T07:56:54;84661.94;;;-3.20;63.27
41312;BME280;27061;41.648;24.568;2024-01-15T07:59:21;84980.94;;;-0.84;61.70
41312;BME280;27061;41.648;24.568;2024-01-15T08:01:49;84815.06;;;-2.16;63.81
41312;BME280;27061;41.648;24.568;2024-01-15T08:04:17;84927.47;;;-1.27;63.65
41312;BME280;27061;41.648;24.568;2024-01-15T08:06:45;84975.00;;;-0.70;64.65
41312;BME280;27061;41.648;24.568;2024-01-15T08:09:12;84978.41;;;-0.67;65.43
41312;BME280;27061;41.648;24.568;2024-01-15T08:11:42;84948.28;;;-0.90;64.31
41312;BME280;27061;41.648;24.568;2024-01-15T08:14:10;84912.81;;;-1.02;65.17
41312;BME280;27061;41.648;24.568;2024-01-15T08:16:38;84932.72;;;-0.85;65.37
41312;BME280;27061;41.648;24.568;2024-01-15T08:19:05;84975.81;;;-0.57;65.02
41312;BME280;27061;41.648;24.568;2024-01-15T08:21:33;84911.75;;;-0.77;65.86
41312;BME280;27061;41.648;24.568;2024-01-15T08:24:05;84978.91;;;-0.19;67.50
41312;BME280;27061;41.648;24.568;2024-01-15T08:26:32;84945.38;;;-0.44;66.14
41312;BME280;27061;41.648;24.568;2024-01-15T08:29:00;84952.38;;;-0.22;66.46
41312;BME280;27061;41.648;24.568;2024-01-15T08:31:27;84947.00;;;-0.14;68.83
41312;BME280;27061;41.648;24.568;2024-01-15T08:33:55;84933.41;;;-0.10;67.54
41312;BME280;27061;41.648;24.568;2024-01-15T08:36:22;84895.88;;;-0.26;69.13
41312;BME280;27061;41.648;24.568;2024-01-15T08:38:51;84859.72;;;-0.43;68.16
41312;BME280;27061;41.648;24.568;2024-01-15T08:41:18;84840.59;;;-0.53;64.63
41312;BME280;27061;41.648;24.568;2024-01-15T08:43:46;84675.91;;;-1.71;64.57
41312;BME280;27061;41.648;24.568;2024-01-15T08:46:17;84985.13;;;0.81;66.63
41312;BME280;27061;41.648;24.568;2024-01-15T08:48:44;84786.81;;;-0.66;66.71
41312;BME280;27061;41.648;24.568;2024-01-15T08:51:12;84652.97;;;-1.56;66.30
41312;BME280;27061;41.648;24.568;2024-01-15T08:53:39;84854.72;;;0.16;65.86
41312;BME280;27061;41.648;24.568;2024-01-15T08:56:07;84947.06;;;0.91;62.46
41312;BME280;27061;41.648;24.568;2024-01-15T08:58:35;84659.94;;;-1.34;62.51
41312;BME280;27061;41.648;24.568;2024-01-15T09:01:02;84768.03;;;-0.30;64.02
41312;BME280;27061;41.648;24.568;2024-01-15T09:03:30;84874.66;;;0.51;63.85
41312;BME280;27061;41.648;24.568;2024-01-15T09:05:58;84723.09;;;-0.41;62.93
41312;BME280;27061;41.648;24.568;2024-01-15T09:08:25;84661.66;;;-0.89;63.51
41312;BME280;27061;41.648;24.568;2024-01-15T09:10:54;84766.91;;;0.08;63.83
41312;BME280;27061;41.648;24.568;2024-01-15T09:13:21;84885.06;;;0.93;62.05
41312;BME280;27061;41.648;24.568;2024-01-15T09:15:49;84862.59;;;0.99;64.50
41312;BME280;27061;41.648;24.568;2024-01-15T09:18:16;84739.75;;;0.26;64.03
41312;BME280;27061;41.648;24.568;2024-01-15T09:20:44;84901.63;;;1.48;63.30
41312;BME280;27061;41.648;24.568;2024-01-15T09:23:11;84902.97;;;1.47;63.75
41312;BME280;27061;41.648;24.568;2024-01-15T09:25:39;84713.84;;;0.13;64.14
41312;BME280;27061;41.648;24.568;2024-01-15T09:28:06;84858.63;;;1.38;65.46
41312;BME280;27061;41.648;24.568;2024-01-15T09:30:35;84789.00;;;0.91;64.08
41312;BME280;27061;41.648;24.568;2024-01-15T09:33:03;84962.50;;;2.38;65.97
41312;BME280;27061;41.648;24.568;2024-01-15T09:35:31;84850.50;;;1.65;65.60
41312;BME280;27061;41.648;24.568;2024-01-15T09:37:58;84905.13;;;2.17;65.92
41312;BME280;27061;41.648;24.568;2024-01-15T09:40:31;84946.09;;;2.64;66.01
41312;BME280;27061;41.648;24.568;2024-01-15T09:42:59;84764.56;;;1.33;66.39
41312;BME280;27061;41.648;24.568;2024-01-15T09:45:27;84898.28;;;2.55;63.92
41312;BME280;27061;41.648;24.568;2024-01-15T09:47:55;84871.63;;;2.68;64.15
41312;BME280;27061;41.648;24.568;2024-01-15T09:50:23;84779.53;;;2.15;61.85
41312;BME280;27061;41.648;24.568;2024-01-15T09:52:51;84685.44;;;1.72;63.68
41312;BME280;27061;41.648;24.568;2024-01-15T09:55:19;84913.13;;;3.49;64.31
41312;BME280;27061;41.648;24.568;2024-01-15T09:57:46;84932.91;;;3.58;64.82
41312;BME280;27061;41.648;24.568;2024-01-15T10:00:17;84729.66;;;2.23;63.42
41312;BME280;27061;41.648;24.568;2024-01-15T10:02:45;84730.31;;;2.34;61.92
41312;BME280;27061;41.648;24.568;2024-01-15T10:05:15;84873.41;;;3.52;61.83
41312;BME280;27061;41.648;24.568;2024-01-15T10:07:43;84856.94;;;3.64;63.22
41312;BME280;27061;41.648;24.568;2024-01-15T10:10:12;84727.38;;;2.88;62.24
41312;BME280;27061;41.648;24.568;2024-01-15T10:12:40;84722.63;;;2.85;61.66
41312;BME280;27061;41.648;24.568;2024-01-15T10:15:10;84685.13;;;2.67;61.83
41312;BME280;27061;41.648;24.568;2024-01-15T10:17:39;84559.09;;;2.06;60.47
41312;BME280;27061;41.648;24.568;2024-01-15T10:20:11;84636.69;;;2.57;59.94
41312;BME280;27061;41.648;24.568;2024-01-15T10:22:42;84842.75;;;4.39;58.59
41312;BME280;27061;41.648;24.568;2024-01-15T10:25:11;84876.06;;;4.72;60.23
41312;BME280;27061;41.648;24.568;2024-01-15T10:27:40;84882.22;;;4.73;59.55
41312;BME280;27061;41.648;24.568;2024-01-15T10:30:09;84729.56;;;3.78;58.27
41312;BME280;27061;41.648;24.568;2024-01-15T10:32:37;84860.97;;;4.71;58.18
41312;BME280;27061;41.648;24.568;2024-01-15T10:35:07;84864.41;;;4.70;56.87
41312;BME280;27061;41.648;24.568;2024-01-15T10:37:34;84752.69;;;3.97;57.43
41312;BME280;27061;41.648;24.568;2024-01-15T10:40:02;84832.16;;;4.76;57.15
41312;BME280;27061;41.648;24.568;2024-01-15T10:42:32;84849.09;;;4.97;56.47
41312;BME280;27061;41.648;24.568;2024-01-15T10:45:01;84813.66;;;4.73;58.30
41312;BME280;27061;41.648;24.568;2024-01-15T10:47:28;84795.06;;;4.84;59.09
41312;BME280;27061;41.648;24.568;2024-01-15T10:49:56;84750.19;;;4.48;57.50
41312;BME280;27061;41.648;24.568;2024-01-15T10:52:24;84855.66;;;5.27;57.68
41312;BME280;27061;41.648;24.568;2024-01-15T10:54:53;84804.56;;;4.93;57.59
41312;BME280;27061;41.648;24.568;2024-01-15T10:57:21;84839.09;;;5.35;58.99
41312;BME280;27061;41.648;24.568;2024-01-15T10:59:49;84766.97;;;4.81;57.43
41312;BME280;27061;41.648;24.568;2024-01-15T11:02:17;84792.75;;;5.08;58.86
41312;BME280;27061;41.648;24.568;2024-01-15T11:04:45;84824.66;;;5.36;56.77
41312;BME280;27061;41.648;24.568;2024-01-15T11:07:13;84837.47;;;5.54;56.27
41312;BME280;27061;41.648;24.568;2024-01-15T11:09:41;84660.75;;;4.16;56.17
41312;BME280;27061;41.648;24.568;2024-01-15T11:12:12;84834.75;;;5.54;56.10
41312;BME280;27061;41.648;24.568;2024-01-15T11:14:44;84672.97;;;4.29;57.12
41312;BME280;27061;41.648;24.568;2024-01-15T11:17:13;84841.50;;;5.63;57.96
41312;BME280;27061;41.648;24.568;2024-01-15T11:22:10;84667.34;;;4.41;55.42
41312;BME280;27061;41.648;24.568;2024-01-15T11:24:39;84801.63;;;5.68;56.21
41312;BME280;27061;41.648;24.568;2024-01-15T11:27:08;84831.69;;;5.78;54.66
41312;BME280;27061;41.648;24.568;2024-01-15T11:29:36;84829.53;;;5.85;56.14
41312;BME280;27061;41.648;24.568;2024-01-15T11:32:05;84735.19;;;5.02;55.91
41312;BME280;27061;41.648;24.568;2024-01-15T11:34:53;84829.66;;;5.77;56.76
41312;BME280;27061;41.648;24.568;2024-01-15T11:37:22;84681.09;;;4.37;56.83
41312;BME280;27061;41.648;24.568;2024-01-15T11:39:52;84837.56;;;5.48;57.47
41312;BME280;27061;41.648;24.568;2024-01-15T11:42:21;84791.41;;;5.03;57.67
41312;BME280;27061;41.648;24.568;2024-01-15T11:44:49;84835.88;;;5.16;58.36
41312;BME280;27061;41.648;24.568;2024-01-15T11:47:39;84711.88;;;4.42;59.01
41312;BME280;27061;41.648;24.568;2024-01-15T11:50:09;84777.41;;;4.66;59.09
41312;BME280;27061;41.648;24.568;2024-01-15T11:52:39;84715.50;;;4.22;59.01
41312;BME280;27061;41.648;24.568;2024-01-15T11:55:27;84820.31;;;4.96;59.91
41312;BME280;27061;41.648;24.568;2024-01-15T11:57:57;84798.44;;;4.88;60.57
41312;BME280;27061;41.648;24.568;2024-01-15T12:00:25;84765.91;;;4.50;60.95
41312;BME280;27061;41.648;24.568;2024-01-15T12:02:52;84620.31;;;3.51;60.01
41312;BME280;27061;41.648;24.568;2024-01-15T12:05:20;84637.34;;;3.60;60.69
41312;BME280;27061;41.648;24.568;2024-01-15T12:07:49;84708.66;;;4.21;60.24
41312;BME280;27061;41.648;24.568;2024-01-15T12:10:20;84811.50;;;4.86;61.50
41312;BME280;27061;41.648;24.568;2024-01-15T12:15:37;84576.28;;;3.00;63.61
41312;BME280;27061;41.648;24.568;2024-01-15T12:18:05;84802.50;;;4.93;61.92
41312;BME280;27061;41.648;24.568;2024-01-15T12:20:35;84764.47;;;4.59;60.09
41312;BME280;27061;41.648;24.568;2024-01-15T12:23:03;84803.81;;;4.98;60.22
41312;BME280;27061;41.648;24.568;2024-01-15T12:25:35;84799.84;;;4.85;61.12
41312;BME280;27061;41.648;24.568;2024-01-15T12:28:03;84779.53;;;4.58;62.20
41312;BME280;27061;41.648;24.568;2024-01-15T12:30:33;84666.56;;;3.82;61.46
41312;BME280;27061;41.648;24.568;2024-01-15T12:33:05;84798.41;;;4.92;60.97
41312;BME280;27061;41.648;24.568;2024-01-15T12:35:36;84794.34;;;4.87;61.29
41312;BME280;27061;41.648;24.568;2024-01-15T12:38:03;84772.56;;;4.69;61.76
41312;BME280;27061;41.648;24.568;2024-01-15T12:40:32;84770.00;;;4.55;61.34
41312;BME280;27061;41.648;24.568;2024-01-15T12:43:05;84803.78;;;5.00;62.55
41312;BME280;27061;41.648;24.568;2024-01-15T12:45:34;84803.66;;;5.12;61.91
41312;BME280;27061;41.648;24.568;2024-01-15T12:48:05;84752.69;;;4.70;61.76
41312;BME280;27061;41.648;24.568;2024-01-15T12:50:38;84803.63;;;5.17;62.46
41312;BME280;27061;41.648;24.568;2024-01-15T12:53:06;84796.69;;;5.22;62.42
41312;BME280;27061;41.648;24.568;2024-01-15T12:55:35;84770.84;;;5.04;62.17
41312;BME280;27061;41.648;24.568;2024-01-15T12:58:02;84766.81;;;4.95;63.21
41312;BME280;27061;41.648;24.568;2024-01-15T13:00:30;84772.31;;;4.95;63.39
41312;BME280;27061;41.648;24.568;2024-01-15T13:02:58;84714.47;;;4.56;63.21
41312;BME280;27061;41.648;24.568;2024-01-15T13:05:26;84737.72;;;4.59;63.99
41312;BME280;27061;41.648;24.568;2024-01-15T13:07:55;84730.38;;;4.41;63.65